Time,TemperatureF,DewpointF,PressureIn,WindDirection,WindDirectionDegrees,WindSpeedMPH,WindSpeedGustMPH,Humidity,HourlyPrecipIn,Conditions,Clouds,dailyrainin,SoftwareType,DateUTC
2017-05-29 00:13:00,75.9,74.0,30.00,North,360,0.0,0.0,93,0.00,,,0.00,weatherlink.com 1.10,2017-05-29 05:13:00,
2017-05-29 00:43:00,75.6,74.0,30.00,North,359,0.0,0.0,94,0.00,,,0.00,weatherlink.com 1.10,2017-05-29 05:43:00,
2017-05-29 00:58:00,75.2,73.0,30.00,North,360,0.0,0.0,94,0.00,,,0.00,weatherlink.com 1.10,2017-05-29 05:58:00,
2017-05-29 01:13:00,75.1,73.0,30.00,North,360,0.0,0.0,94,0.00,,,0.00,weatherlink.com 1.10,2017-05-29 06:13:00,
2017-05-29 01:28:00,74.8,73.0,30.00,North,360,0.0,0.0,95,0.00,,,0.00,weatherlink.com 1.10,2017-05-29 06:28:00,
2017-05-29 01:43:00,74.9,73.0,29.99,North,360,0.0,0.0,95,0.00,,,0.00,weatherlink.com 1.10,2017-05-29 06:43:00,
2017-05-29 02:00:00,74.8,73.0,29.99,North,359,0.0,0.0,95,0.00,,,0.00,weatherlink.com 1.10,2017-05-29 07:00:00,
2017-05-29 02:13:00,74.8,73.0,29.99,North,360,0.0,0.0,95,0.00,,,0.00,weatherlink.com 1.10,2017-05-29 07:13:00,
2017-05-29 02:28:00,74.8,73.0,29.98,North,360,0.0,0.0,95,0.00,,,0.00,weatherlink.com 1.10,2017-05-29 07:28:00,
2017-05-29 02:43:00,74.9,73.0,29.96,North,360,0.0,0.0,95,0.00,,,0.00,weatherlink.com 1.10,2017-05-29 07:43:00,
2017-05-29 02:58:00,74.9,73.0,29.95,North,359,0.0,0.0,95,0.00,,,0.00,weatherlink.com 1.10,2017-05-29 07:58:00,
2017-05-29 03:13:00,74.8,73.0,29.95,NE,37,0.0,0.0,95,0.00,,,0.00,weatherlink.com 1.10,2017-05-29 08:13:00,
2017-05-29 03:29:00,-999.9,-99.9,29.94,North,-9999,-999.9,-999.0,-999,0.00,,,0.00,weatherlink.com 1.10,2017-05-29 08:29:00,
2017-05-29 03:43:00,-999.9,-99.9,29.94,North,-9999,-999.9,-999.0,-999,0.00,,,0.00,weatherlink.com 1.10,2017-05-29 08:43:00,
2017-05-29 03:58:00,-999.9,-99.9,29.96,North,-9999,-999.9,-999.0,-999,0.00,,,0.00,weatherlink.com 1.10,2017-05-29 08:58:00,
2017-05-29 04:14:00,-999.9,-99.9,29.96,North,-9999,-999.9,-999.0,-999,0.00,,,0.00,weatherlink.com 1.10,2017-05-29 09:14:00,
2017-05-29 04:29:00,-999.9,-99.9,29.96,North,-9999,-999.9,-999.0,-999,0.00,,,0.00,weatherlink.com 1.10,2017-05-29 09:29:00,
2017-05-29 04:44:00,-999.9,-99.9,29.96,North,-9999,-999.9,-999.0,-999,0.00,,,0.00,weatherlink.com 1.10,2017-05-29 09:44:00,
2017-05-29 04:59:00,-999.9,-99.9,29.96,North,-9999,-999.9,-999.0,-999,0.00,,,0.00,weatherlink.com 1.10,2017-05-29 09:59:00,
2017-05-29 05:14:00,-999.9,-99.9,29.95,North,-9999,-999.9,-999.0,-999,0.00,,,0.00,weatherlink.com 1.10,2017-05-29 10:14:00,
2017-05-29 05:29:00,-999.9,-99.9,29.95,North,-9999,-999.9,-999.0,-999,0.00,,,0.00,weatherlink.com 1.10,2017-05-29 10:29:00,
2017-05-29 05:44:00,-999.9,-99.9,29.95,North,-9999,-999.9,-999.0,-999,0.00,,,0.00,weatherlink.com 1.10,2017-05-29 10:44:00,
2017-05-29 05:59:00,-999.9,-99.9,29.95,North,-9999,-999.9,-999.0,-999,0.00,,,0.00,weatherlink.com 1.10,2017-05-29 10:59:00,
2017-05-29 06:14:00,-999.9,-99.9,29.97,North,-9999,-999.9,-999.0,-999,0.00,,,0.00,weatherlink.com 1.10,2017-05-29 11:14:00,
2017-05-29 06:29:00,-999.9,-99.9,29.99,North,-9999,-999.9,-999.0,-999,0.00,,,0.00,weatherlink.com 1.10,2017-05-29 11:29:00,
2017-05-29 06:44:00,-999.9,-99.9,29.99,North,-9999,-999.9,-999.0,-999,0.00,,,0.00,weatherlink.com 1.10,2017-05-29 11:44:00,
2017-05-29 06:59:00,-999.9,-99.9,29.98,North,-9999,-999.9,-999.0,-999,0.00,,,0.00,weatherlink.com 1.10,2017-05-29 11:59:00,
2017-05-29 07:14:00,72.9,72.0,29.99,SSE,155,0.0,1.0,96,0.00,,,0.00,weatherlink.com 1.10,2017-05-29 12:14:00,
2017-05-29 07:29:00,72.8,72.0,29.99,East,84,0.0,1.0,96,0.00,,,0.00,weatherlink.com 1.10,2017-05-29 12:29:00,
2017-05-29 07:44:00,73.0,72.0,30.00,SE,145,0.0,1.0,96,0.00,,,0.00,weatherlink.com 1.10,2017-05-29 12:44:00,
2017-05-29 07:59:00,73.1,72.0,30.02,SE,142,0.0,2.0,96,0.01,,,0.01,weatherlink.com 1.10,2017-05-29 12:59:00,
2017-05-29 08:29:00,73.0,72.0,30.06,SSW,194,0.0,1.0,96,0.08,,,0.08,weatherlink.com 1.10,2017-05-29 13:29:00,
2017-05-29 08:44:00,73.1,72.0,30.05,SW,233,0.0,1.0,96,0.09,,,0.09,weatherlink.com 1.10,2017-05-29 13:44:00,
2017-05-29 08:59:00,73.3,72.0,30.04,NE,44,0.0,2.0,96,0.09,,,0.10,weatherlink.com 1.10,2017-05-29 13:59:00,
2017-05-29 09:14:00,73.7,73.0,30.04,NE,46,0.0,0.0,96,0.07,,,0.11,weatherlink.com 1.10,2017-05-29 14:14:00,
2017-05-29 09:29:00,74.4,73.0,30.04,NE,56,0.0,1.0,96,0.03,,,0.11,weatherlink.com 1.10,2017-05-29 14:29:00,
2017-05-29 09:45:00,74.7,74.0,30.05,SW,222,0.0,1.0,96,0.02,,,0.11,weatherlink.com 1.10,2017-05-29 14:45:00,
2017-05-29 10:00:00,74.8,74.0,30.06,SSE,166,0.0,1.0,96,0.00,,,0.11,weatherlink.com 1.10,2017-05-29 15:00:00,
2017-05-29 10:15:00,75.2,74.0,30.06,South,174,1.0,2.0,96,0.00,,,0.11,weatherlink.com 1.10,2017-05-29 15:15:00,
2017-05-29 10:30:00,75.8,74.0,30.04,SSW,197,0.0,2.0,95,0.00,,,0.11,weatherlink.com 1.10,2017-05-29 15:30:00,
2017-05-29 10:45:00,77.2,75.0,30.05,SSW,203,1.0,4.0,94,0.00,,,0.11,weatherlink.com 1.10,2017-05-29 15:45:00,
2017-05-29 11:00:00,77.7,76.0,30.06,SSE,149,0.0,5.0,93,0.00,,,0.11,weatherlink.com 1.10,2017-05-29 16:00:00,
2017-05-29 11:15:00,78.4,76.0,30.04,SE,145,0.0,1.0,92,0.00,,,0.11,weatherlink.com 1.10,2017-05-29 16:15:00,
2017-05-29 11:30:00,79.9,77.0,30.03,SSE,152,0.0,3.0,90,0.00,,,0.11,weatherlink.com 1.10,2017-05-29 16:30:00,
2017-05-29 11:45:00,82.7,77.0,30.04,SSE,167,2.0,4.0,83,0.00,,,0.11,weatherlink.com 1.10,2017-05-29 16:45:00,
2017-05-29 12:00:00,82.4,76.0,30.04,SSW,193,0.0,1.0,82,0.00,,,0.11,weatherlink.com 1.10,2017-05-29 17:00:00,
2017-05-29 12:15:00,83.5,77.0,30.04,SSE,166,0.0,5.0,80,0.00,,,0.11,weatherlink.com 1.10,2017-05-29 17:15:00,
2017-05-29 12:30:00,84.4,75.0,30.03,ENE,78,0.0,5.0,73,0.00,,,0.11,weatherlink.com 1.10,2017-05-29 17:30:00,
2017-05-29 12:45:00,84.1,75.0,30.02,SW,229,0.0,4.0,75,0.00,,,0.11,weatherlink.com 1.10,2017-05-29 17:45:00,
2017-05-29 13:00:00,84.8,75.0,30.02,South,175,0.0,2.0,72,0.00,,,0.11,weatherlink.com 1.10,2017-05-29 18:00:00,
2017-05-29 13:15:00,86.0,74.0,30.01,SW,231,2.0,4.0,68,0.00,,,0.11,weatherlink.com 1.10,2017-05-29 18:15:00,
2017-05-29 13:30:00,86.6,73.0,30.01,SSE,160,0.0,2.0,64,0.00,,,0.11,weatherlink.com 1.10,2017-05-29 18:30:00,
2017-05-29 13:45:00,86.9,75.0,30.00,West,276,1.0,4.0,68,0.00,,,0.11,weatherlink.com 1.10,2017-05-29 18:45:00,
2017-05-29 14:00:00,88.6,75.0,30.00,SW,228,1.0,4.0,64,0.00,,,0.11,weatherlink.com 1.10,2017-05-29 19:00:00,
2017-05-29 14:15:00,88.4,74.0,30.00,SSW,204,0.0,5.0,62,0.00,,,0.11,weatherlink.com 1.10,2017-05-29 19:15:00,